Time;durP1;ratioP1;P1;durP2;ratioP2;P2;SDS_P1;SDS_P2;PMS_P1;PMS_P2;Temp;Humidity;BMP_temperature;BMP_pressure;BME280_temperature;BME280_humidity;BME280_pressure;Samples;Min_cycle;Max_cycle;Signal;HPM_P1;HPM_P2
2023/10/16 00:01:18;;;;;;;1.23;0.60;;;23.00;40.00;;;;;;5048206;28;20017;-82
2023/10/16 00:03:47;;;;;;;1.85;0.60;;;22.90;39.10;;;;;;5039500;28;20042;-80
2023/10/16 00:06:16;;;;;;;2.22;0.55;;;22.80;39.10;;;;;;5037491;28;20558;-82
2023/10/16 00:08:48;;;;;;;1.65;0.60;;;22.70;39.30;;;;;;5051228;28;20075;-80
2023/10/16 00:11:17;;;;;;;2.05;0.60;;;22.60;40.30;;;;;;5054008;28;20059;-80
2023/10/16 00:13:49;;;;;;;1.02;0.60;;;22.60;40.50;;;;;;5054708;28;20548;-82
2023/10/16 00:16:18;;;;;;;3.22;0.65;;;22.60;40.50;;;;;;5054692;28;20036;-80
2023/10/16 00:18:47;;;;;;;3.15;0.68;;;22.70;40.60;;;;;;5050723;28;20031;-79
2023/10/16 00:21:15;;;;;;;3.35;0.63;;;22.70;39.90;;;;;;5065892;28;20487;-80
2023/10/16 00:23:43;;;;;;;1.95;0.60;;;22.70;39.80;;;;;;5062204;28;20029;-80
2023/10/16 00:26:16;;;;;;;3.13;0.60;;;22.80;40.10;;;;;;5053839;28;20526;-80
2023/10/16 00:28:46;;;;;;;0.75;0.40;;;22.80;40.30;;;;;;5053473;28;20029;-79
2023/10/16 00:31:23;;;;;;;1.52;0.40;;;23.30;39.80;;;;;;5033724;28;20496;-79
2023/10/16 00:33:53;;;;;;;1.13;0.50;;;23.50;39.40;;;;;;5034822;28;20473;-80
2023/10/16 00:36:20;;;;;;;1.23;0.50;;;23.60;38.70;;;;;;5049603;28;20611;-81
2023/10/16 00:38:51;;;;;;;1.98;0.50;;;23.70;38.10;;;;;;5069572;28;20131;-78
2023/10/16 00:41:28;;;;;;;2.17;0.50;;;23.80;38.70;;;;;;5074208;28;20017;-83
2023/10/16 00:43:57;;;;;;;1.77;0.68;;;23.90;37.90;;;;;;5074610;28;20150;-81
2023/10/16 00:46:36;;;;;;;2.45;0.80;;;24.10;38.30;;;;;;5074451;28;20024;-79
2023/10/16 00:49:09;;;;;;;2.35;0.50;;;24.40;38.10;;;;;;5068517;28;20021;-79
2023/10/16 00:51:41;;;;;;;3.00;0.60;;;24.50;37.90;;;;;;5043945;28;20037;-79
2023/10/16 00:54:28;;;;;;;0.98;0.50;;;24.80;37.10;;;;;;5052479;28;20025;-80
2023/10/16 00:57:00;;;;;;;0.77;0.50;;;25.00;35.50;;;;;;5074030;28;20107;-81
2023/10/16 00:59:31;;;;;;;2.28;0.57;;;25.10;36.20;;;;;;5056070;28;20052;-79
2023/10/16 01:04:55;;;;;;;0.68;0.50;;;25.30;36.00;;;;;;5044317;28;20045;-79
2023/10/16 01:07:23;;;;;;;3.80;0.60;;;25.40;35.40;;;;;;5047748;28;20060;-85
2023/10/16 01:09:51;;;;;;;1.88;0.63;;;25.40;35.70;;;;;;5046706;28;20452;-79
2023/10/16 01:12:22;;;;;;;2.53;0.70;;;25.20;35.10;;;;;;5047474;28;20476;-78
2023/10/16 01:14:49;;;;;;;3.58;0.70;;;25.10;35.60;;;;;;5047721;28;20025;-79
2023/10/16 01:17:29;;;;;;;5.05;0.70;;;25.10;35.90;;;;;;5059094;28;20104;-79
2023/10/16 01:19:56;;;;;;;1.55;0.43;;;25.00;36.10;;;;;;5051831;28;20021;-78
2023/10/16 01:22:29;;;;;;;0.40;0.40;;;25.20;36.10;;;;;;5047611;28;20143;-79
2023/10/16 01:24:59;;;;;;;2.88;0.50;;;25.20;35.00;;;;;;5052017;28;20021;-83
2023/10/16 01:27:29;;;;;;;3.20;0.50;;;25.30;35.80;;;;;;5039607;28;20171;-78
2023/10/16 01:29:59;;;;;;;2.42;0.40;;;25.50;35.40;;;;;;5033604;28;20021;-80
2023/10/16 01:32:27;;;;;;;2.85;0.55;;;25.70;34.40;;;;;;5046322;28;20043;-82
2023/10/16 01:34:56;;;;;;;0.68;0.50;;;25.80;33.70;;;;;;5054595;28;20041;-79
2023/10/16 01:37:23;;;;;;;0.95;0.60;;;25.90;33.30;;;;;;5052688;28;20029;-79
2023/10/16 01:39:53;;;;;;;3.60;0.70;;;26.10;33.10;;;;;;5048234;28;20365;-83
2023/10/16 01:42:21;;;;;;;1.17;0.50;;;26.20;33.30;;;;;;5046521;28;20025;-81
2023/10/16 01:44:52;;;;;;;2.75;0.65;;;26.30;33.00;;;;;;5050335;28;20036;-79
2023/10/16 01:47:19;;;;;;;1.50;0.50;;;26.50;32.40;;;;;;5046575;28;20025;-78
2023/10/16 01:49:48;;;;;;;2.15;0.50;;;26.50;32.50;;;;;;5050726;28;20039;-82
2023/10/16 01:52:16;;;;;;;4.07;0.50;;;26.50;32.80;;;;;;5051872;28;20387;-77
2023/10/16 01:54:48;;;;;;;0.98;0.50;;;26.60;32.00;;;;;;5047662;28;20088;-84
2023/10/16 01:57:16;;;;;;;0.43;0.40;;;26.70;31.90;;;;;;5041372;28;20534;-83
2023/10/16 01:59:51;;;;;;;3.13;0.47;;;26.70;31.60;;;;;;5044722;28;20116;-82
2023/10/16 02:02:18;;;;;;;3.10;0.47;;;26.70;31.50;;;;;;5050085;28;20041;-79
2023/10/16 02:04:46;;;;;;;2.20;0.63;;;26.70;32.20;;;;;;5042943;28;20036;-77
2023/10/16 02:07:13;;;;;;;3.95;0.70;;;26.80;31.30;;;;;;5032776;28;20095;-81
2023/10/16 02:09:41;;;;;;;1.85;0.55;;;26.70;31.70;;;;;;5032985;28;20385;-84
2023/10/16 02:12:16;;;;;;;4.13;0.70;;;26.70;31.90;;;;;;5040999;28;20059;-80
2023/10/16 02:14:44;;;;;;;;;;;26.60;31.60;;;;;;5047521;28;20120;-79
2023/10/16 02:17:18;;;;;;;2.47;0.70;;;26.70;31.40;;;;;;5049749;28;19916;-80
2023/10/16 02:19:47;;;;;;;1.75;0.65;;;26.70;31.00;;;;;;5049352;28;20037;-84
2023/10/16 02:22:16;;;;;;;5.18;0.60;;;26.70;30.70;;;;;;5050167;28;20060;-80
2023/10/16 02:24:44;;;;;;;4.82;0.65;;;26.60;31.00;;;;;;5039932;28;20021;-82
2023/10/16 02:27:14;;;;;;;5.05;0.60;;;26.30;31.00;;;;;;5046832;28;20033;-81
2023/10/16 02:29:52;;;;;;;0.68;0.47;;;26.10;31.70;;;;;;5048214;28;20112;-78
2023/10/16 02:32:22;;;;;;;1.30;0.50;;;25.90;30.80;;;;;;5051106;28;20497;-78
2023/10/16 02:34:51;;;;;;;2.22;0.50;;;25.70;30.20;;;;;;5049946;28;20055;-82
2023/10/16 02:37:20;;;;;;;7.00;0.75;;;25.50;30.90;;;;;;5046212;28;20033;-79
2023/10/16 02:39:50;;;;;;;2.97;0.60;;;25.60;31.20;;;;;;5049129;28;20120;-83
2023/10/16 02:42:19;;;;;;;0.50;0.50;;;25.80;30.60;;;;;;5052047;28;20059;-80
2023/10/16 02:44:47;;;;;;;2.35;0.50;;;25.80;30.70;;;;;;5046965;28;20427;-82
2023/10/16 02:47:22;;;;;;;3.63;0.70;;;26.00;30.90;;;;;;5049620;28;20033;-83
2023/10/16 02:49:49;;;;;;;0.75;0.60;;;26.10;30.80;;;;;;5048820;28;20017;-79
2023/10/16 02:52:19;;;;;;;0.40;0.30;;;26.30;30.50;;;;;;5049355;28;20037;-81
2023/10/16 02:54:47;;;;;;;3.30;0.60;;;26.20;29.80;;;;;;5047887;28;20025;-83
2023/10/16 02:57:15;;;;;;;0.60;0.50;;;26.20;29.40;;;;;;5044166;28;20021;-80
2023/10/16 02:59:49;;;;;;;3.80;0.50;;;26.20;28.90;;;;;;5049347;28;20112;-79
2023/10/16 03:02:23;;;;;;;0.98;0.47;;;26.20;28.30;;;;;;5054002;28;20103;-81
2023/10/16 03:04:54;;;;;;;2.95;0.65;;;26.20;28.00;;;;;;5056361;28;20468;-81
2023/10/16 03:07:22;;;;;;;1.80;0.60;;;26.10;27.40;;;;;;5049186;28;20110;-80
2023/10/16 03:09:50;;;;;;;1.48;0.50;;;26.00;27.80;;;;;;5069866;28;20418;-84
2023/10/16 03:12:21;;;;;;;1.60;0.47;;;26.10;27.40;;;;;;5049450;28;20021;-83
2023/10/16 03:14:57;;;;;;;2.78;0.50;;;26.20;28.60;;;;;;5051804;28;20073;-82
2023/10/16 03:17:45;;;;;;;2.13;0.50;;;26.20;28.80;;;;;;5057100;28;20499;-81
2023/10/16 03:20:20;;;;;;;0.30;0.30;;;26.30;27.90;;;;;;5047848;28;20036;-79
2023/10/16 03:22:50;;;;;;;1.95;0.60;;;26.30;27.90;;;;;;5055305;28;20041;-81
2023/10/16 03:28:13;;;;;;;2.40;0.40;;;26.30;27.90;;;;;;5044524;28;20055;-83
2023/10/16 03:30:43;;;;;;;2.22;0.50;;;26.30;27.30;;;;;;5053611;28;20033;-83
2023/10/16 03:33:18;;;;;;;2.92;0.65;;;26.30;27.00;;;;;;5053287;28;20032;-83
2023/10/16 03:35:49;;;;;;;1.95;0.65;;;26.30;26.40;;;;;;5034355;28;20041;-84
2023/10/16 03:38:36;;;;;;;2.67;1.20;;;26.30;26.50;;;;;;5060637;28;20033;-82
2023/10/16 03:41:31;;;;;;;1.27;0.70;;;26.20;27.00;;;;;;5067861;28;20515;-84
2023/10/16 03:44:07;;;;;;;2.47;0.55;;;26.30;27.00;;;;;;5051515;28;20041;-80
2023/10/16 03:46:39;;;;;;;1.75;0.75;;;26.30;26.70;;;;;;5047520;28;20025;-81
2023/10/16 03:49:06;;;;;;;0.75;0.63;;;26.20;26.40;;;;;;5051832;28;20510;-83
2023/10/16 03:51:34;;;;;;;2.70;0.75;;;26.10;26.70;;;;;;5050769;28;20036;-79
2023/10/16 03:54:02;;;;;;;2.10;0.70;;;26.10;26.20;;;;;;5057605;28;20033;-81
2023/10/16 03:56:33;;;;;;;1.75;0.60;;;26.00;26.40;;;;;;5061557;28;20139;-82
2023/10/16 03:59:00;;;;;;;1.33;0.50;;;25.80;26.60;;;;;;5039992;28;20032;-81
2023/10/16 04:01:28;;;;;;;0.75;0.75;;;25.60;27.40;;;;;;5044108;28;20381;-80
2023/10/16 04:03:58;;;;;;;6.85;0.70;;;25.50;29.70;;;;;;5058422;28;20048;-78
2023/10/16 04:06:27;;;;;;;5.40;0.90;;;25.30;35.90;;;;;;5046544;28;20013;-78
2023/10/16 04:08:55;;;;;;;4.65;0.88;;;24.50;42.70;;;;;;5051080;28;20032;-78
2023/10/16 04:11:24;;;;;;;3.20;0.65;;;23.80;46.70;;;;;;5061473;28;20016;-79
2023/10/16 04:13:55;;;;;;;1.92;0.70;;;23.10;49.20;;;;;;5053121;28;20037;-79
2023/10/16 04:16:49;;;;;;;6.47;0.70;;;22.60;51.70;;;;;;5040500;28;20020;-79
2023/10/16 04:21:45;;;;;;;3.30;0.50;;;21.90;54.10;;;;;;5055233;28;20020;-83
2023/10/16 04:29:28;;;;;;;5.63;0.77;;;21.50;47.00;;;;;;5061476;28;20032;-79
2023/10/16 04:31:57;;;;;;;1.92;0.30;;;21.20;46.60;;;;;;5052559;28;20030;-80
2023/10/16 04:53:07;;;;;;;0.10;0.10;;;19.10;52.60;;;;;;5043689;28;20025;-78
2023/10/16 05:01:22;;;;;;;0.30;0.30;;;18.50;52.60;;;;;;5065449;28;20024;-80
2023/10/16 05:04:14;;;;;;;0.85;0.30;;;18.40;53.10;;;;;;5044548;28;20060;-78
2023/10/16 06:15:38;;;;;;;0.85;0.50;;;17.90;37.70;;;;;;5038431;28;20113;-80
2023/10/16 06:18:06;;;;;;;0.38;0.30;;;17.90;38.90;;;;;;5040183;28;20391;-84
2023/10/16 06:20:37;;;;;;;1.02;0.40;;;17.90;37.90;;;;;;5051968;28;20746;-81
2023/10/16 06:23:09;;;;;;;1.25;0.30;;;18.00;37.30;;;;;;5049296;28;20488;-84
2023/10/16 06:25:37;;;;;;;0.68;0.50;;;18.00;37.10;;;;;;5034055;28;20104;-82
2023/10/16 06:28:15;;;;;;;2.55;0.50;;;18.10;37.20;;;;;;5046833;28;20112;-80
2023/10/16 06:30:43;;;;;;;0.40;0.20;;;18.10;37.60;;;;;;5044038;28;20028;-80
2023/10/16 06:33:14;;;;;;;0.20;0.13;;;18.20;38.00;;;;;;5040174;28;20021;-81
2023/10/16 06:35:42;;;;;;;0.45;0.28;;;18.50;38.30;;;;;;5041487;28;20021;-82
2023/10/16 06:38:14;;;;;;;0.85;0.40;;;18.80;38.80;;;;;;5034491;28;20032;-80
2023/10/16 06:40:41;;;;;;;0.32;0.20;;;19.10;39.00;;;;;;5041612;28;20032;-80
2023/10/16 06:43:13;;;;;;;2.08;0.50;;;19.20;38.70;;;;;;5042137;28;20535;-81
2023/10/16 06:48:37;;;;;;;2.67;0.60;;;19.60;36.00;;;;;;5028328;28;20051;-80
2023/10/16 06:51:14;;;;;;;2.47;0.30;;;19.40;36.20;;;;;;5035121;28;20038;-81
2023/10/16 06:53:42;;;;;;;4.25;0.50;;;19.50;37.50;;;;;;5033026;28;20036;-79
2023/10/16 06:56:14;;;;;;;1.85;0.52;;;19.50;36.70;;;;;;5043485;28;20061;-80
2023/10/16 06:58:42;;;;;;;0.98;0.40;;;19.50;35.90;;;;;;5047712;28;20083;-78
2023/10/16 07:01:12;;;;;;;0.70;0.40;;;19.40;36.90;;;;;;5049323;28;20058;-82
2023/10/16 07:03:39;;;;;;;2.30;0.60;;;19.40;37.90;;;;;;5039084;28;20026;-78
2023/10/16 07:06:06;;;;;;;5.38;1.08;;;19.30;38.40;;;;;;5038969;28;20020;-80
2023/10/16 07:08:34;;;;;;;2.55;0.40;;;19.30;39.40;;;;;;5037342;28;20025;-80
2023/10/16 07:11:04;;;;;;;2.75;0.68;;;19.20;40.40;;;;;;5036277;28;20022;-85
2023/10/16 07:13:32;;;;;;;6.40;0.90;;;19.10;41.70;;;;;;5042219;28;20017;-84
2023/10/16 07:16:01;;;;;;;5.97;0.90;;;19.10;43.80;;;;;;5038577;28;20082;-82
2023/10/16 07:18:31;;;;;;;3.53;0.90;;;18.90;44.10;;;;;;5039172;28;20021;-82
2023/10/16 07:20:59;;;;;;;2.75;0.75;;;18.80;44.90;;;;;;5037149;28;20073;-81
2023/10/16 07:23:35;;;;;;;4.07;0.88;;;18.70;45.10;;;;;;5039179;28;20179;-83
2023/10/16 07:26:04;;;;;;;;;;;18.60;44.80;;;;;;5045454;28;20060;-81
2023/10/16 07:28:32;;;;;;;1.65;0.63;;;18.50;44.90;;;;;;5039941;28;19909;-78
2023/10/16 07:31:02;;;;;;;4.35;1.10;;;18.40;44.50;;;;;;5041062;28;20036;-81
2023/10/16 07:33:30;;;;;;;2.35;0.98;;;18.30;44.60;;;;;;5043775;28;20035;-82
2023/10/16 07:35:59;;;;;;;4.05;0.80;;;18.30;44.40;;;;;;5036781;28;20033;-79
2023/10/16 07:38:28;;;;;;;3.28;0.90;;;18.20;44.70;;;;;;5037296;28;20033;-82
2023/10/16 07:40:58;;;;;;;3.63;0.93;;;18.20;45.40;;;;;;5045290;28;20116;-81
2023/10/16 07:43:28;;;;;;;1.73;0.70;;;18.10;43.90;;;;;;5049377;28;20060;-82
2023/10/16 07:48:45;;;;;;;1.77;0.80;;;18.00;44.10;;;;;;5051618;28;20098;-82
2023/10/16 07:51:15;;;;;;;5.13;0.82;;;18.00;44.60;;;;;;5039992;28;20017;-82
2023/10/16 07:53:43;;;;;;;1.42;0.80;;;17.90;44.00;;;;;;5058033;28;20365;-82
2023/10/16 07:59:11;;;;;;;2.25;0.80;;;17.90;45.60;;;;;;5033076;28;20558;-81
2023/10/16 08:01:57;;;;;;;3.53;0.80;;;17.90;46.10;;;;;;5043118;28;20108;-80
2023/10/16 08:07:04;;;;;;;2.05;1.10;;;17.80;45.60;;;;;;5045690;28;20029;-82
2023/10/16 08:12:18;;;;;;;1.85;0.90;;;17.80;46.10;;;;;;5043700;28;20017;-80
2023/10/16 08:14:51;;;;;;;1.90;0.63;;;17.80;45.60;;;;;;5038195;28;20035;-81
2023/10/16 08:17:23;;;;;;;8.75;1.42;;;17.70;45.30;;;;;;5047246;28;20021;-81
2023/10/16 08:19:51;;;;;;;5.30;1.10;;;17.70;46.70;;;;;;5040347;28;20388;-82
2023/10/16 08:22:22;;;;;;;1.55;1.02;;;17.70;46.60;;;;;;5039112;28;20373;-83
2023/10/16 08:24:59;;;;;;;2.97;1.15;;;17.60;46.80;;;;;;5039901;28;20512;-80
2023/10/16 08:30:32;;;;;;;3.53;0.90;;;17.50;46.60;;;;;;5048179;28;20031;-81
2023/10/16 08:33:07;;;;;;;2.38;0.82;;;17.30;46.50;;;;;;5064484;28;20016;-82
2023/10/16 08:35:38;;;;;;;1.38;0.80;;;17.30;47.00;;;;;;5033685;28;20029;-83
2023/10/16 08:38:25;;;;;;;3.25;1.10;;;17.30;47.50;;;;;;5044697;28;20029;-81
2023/10/16 08:41:06;;;;;;;4.93;1.30;;;17.30;47.60;;;;;;5047119;28;20033;-81
2023/10/16 08:46:44;;;;;;;2.17;0.80;;;17.30;49.20;;;;;;5035944;28;20064;-82
2023/10/16 08:49:12;;;;;;;2.00;1.00;;;17.30;48.70;;;;;;5040611;28;20086;-82
2023/10/16 08:51:40;;;;;;;3.85;1.10;;;17.30;49.00;;;;;;5046002;28;20087;-83
2023/10/16 08:54:35;;;;;;;3.17;0.98;;;17.20;48.70;;;;;;5060759;28;20507;-81
2023/10/16 08:56:56;;;;;;;4.57;1.20;;;17.10;48.20;;;;;;5050456;28;20392;-80
2023/10/16 08:59:25;;;;;;;3.05;0.75;;;17.00;48.70;;;;;;5036226;28;20435;-80
2023/10/16 09:01:54;;;;;;;2.10;0.60;;;16.80;48.60;;;;;;5056874;28;20016;-81
2023/10/16 09:04:27;;;;;;;3.72;0.57;;;16.60;49.50;;;;;;5050407;28;20099;-81
2023/10/16 09:06:56;;;;;;;1.20;0.65;;;16.40;50.40;;;;;;5049455;28;20029;-79
2023/10/16 09:09:25;;;;;;;1.73;0.80;;;16.20;51.10;;;;;;5046448;28;20052;-80
2023/10/16 09:12:04;;;;;;;1.65;1.00;;;16.00;52.00;;;;;;5040939;28;20017;-81
2023/10/16 09:14:32;;;;;;;0.90;0.55;;;15.90;53.50;;;;;;5039603;28;20026;-81
2023/10/16 09:17:00;;;;;;;3.78;0.55;;;15.70;55.50;;;;;;5044907;28;20100;-82
2023/10/16 09:19:33;;;;;;;3.58;0.57;;;15.70;58.60;;;;;;5045050;28;20036;-79
2023/10/16 09:22:10;;;;;;;1.20;0.40;;;15.30;60.90;;;;;;5038594;28;20536;-81
2023/10/16 09:24:38;;;;;;;0.55;0.52;;;15.10;62.60;;;;;;5042229;28;20119;-81
2023/10/16 09:30:02;;;;;;;1.02;0.30;;;14.70;64.00;;;;;;5040552;28;20562;-82
2023/10/16 09:32:36;;;;;;;0.22;0.20;;;14.50;63.90;;;;;;5035314;28;20057;-82
2023/10/16 09:35:11;;;;;;;0.47;0.40;;;14.60;63.90;;;;;;5053501;28;20029;-81
2023/10/16 09:37:39;;;;;;;0.45;0.30;;;14.60;63.60;;;;;;5044275;28;20125;-80
2023/10/16 09:43:13;;;;;;;0.20;0.20;;;14.70;62.80;;;;;;5035006;28;20047;-83
2023/10/16 09:45:47;;;;;;;0.50;0.28;;;14.70;63.10;;;;;;5042100;28;20028;-81
2023/10/16 09:48:26;;;;;;;0.38;0.30;;;14.70;63.70;;;;;;5036896;28;20025;-81
2023/10/16 09:50:54;;;;;;;0.43;0.22;;;14.70;63.30;;;;;;5040296;28;20021;-83
2023/10/16 09:53:22;;;;;;;0.40;0.40;;;14.80;63.70;;;;;;5034274;28;20108;-81
2023/10/16 09:55:58;;;;;;;0.40;0.20;;;14.80;63.40;;;;;;5043748;28;20021;-82
2023/10/16 09:58:30;;;;;;;0.32;0.32;;;14.80;64.70;;;;;;5032973;28;20432;-83
2023/10/16 10:01:16;;;;;;;0.70;0.40;;;14.90;64.90;;;;;;5045707;28;20098;-81
2023/10/16 10:03:44;;;;;;;1.02;0.55;;;15.00;65.20;;;;;;5060052;28;20501;-82
2023/10/16 10:06:20;;;;;;;0.63;0.40;;;15.00;64.30;;;;;;5046742;28;20054;-82
2023/10/16 10:12:07;;;;;;;1.67;0.60;;;15.00;62.80;;;;;;5039439;28;20026;-82
2023/10/16 10:14:48;;;;;;;0.60;0.45;;;14.90;63.00;;;;;;5042002;28;20029;-82
2023/10/16 10:17:20;;;;;;;0.57;0.40;;;14.90;62.30;;;;;;5050234;28;20089;-82
2023/10/16 10:19:55;;;;;;;0.68;0.40;;;14.90;62.20;;;;;;5032601;28;20032;-82
2023/10/16 10:22:27;;;;;;;0.40;0.40;;;14.90;63.20;;;;;;5042701;28;20048;-82
2023/10/16 10:25:24;;;;;;;0.82;0.60;;;15.10;63.10;;;;;;5037144;28;20025;-82
2023/10/16 10:27:55;;;;;;;0.40;0.35;;;15.30;62.90;;;;;;5048371;28;20030;-82
2023/10/16 10:30:27;;;;;;;0.85;0.45;;;15.40;62.00;;;;;;5045170;28;20546;-82
2023/10/16 10:32:55;;;;;;;2.28;0.32;;;15.30;62.10;;;;;;5050674;28;20485;-81
2023/10/16 10:35:29;;;;;;;3.40;0.90;;;15.40;62.30;;;;;;5051669;28;20354;-81
2023/10/16 10:38:24;;;;;;;1.48;0.60;;;15.30;61.10;;;;;;5045914;28;20048;-81
2023/10/16 10:41:10;;;;;;;1.00;0.55;;;15.20;61.00;;;;;;5039348;28;20041;-82
2023/10/16 10:43:47;;;;;;;1.70;0.60;;;15.10;61.10;;;;;;5032830;28;20042;-82
2023/10/16 10:46:21;;;;;;;0.73;0.50;;;15.10;61.70;;;;;;5054313;28;20135;-82
2023/10/16 10:48:49;;;;;;;1.17;0.43;;;15.10;62.30;;;;;;5050213;28;20021;-81
2023/10/16 10:51:18;;;;;;;1.08;0.40;;;15.20;62.50;;;;;;5065651;28;20364;-83
2023/10/16 10:53:59;;;;;;;0.60;0.35;;;15.20;62.30;;;;;;5062675;28;20024;-84
2023/10/16 10:56:47;;;;;;;3.83;0.50;;;15.20;62.00;;;;;;5072450;28;20021;-84
2023/10/16 10:59:47;;;;;;;1.52;0.60;;;15.20;62.30;;;;;;5066922;28;20056;-82
2023/10/16 11:05:22;;;;;;;0.63;0.30;;;15.30;61.90;;;;;;5042007;28;20057;-81
2023/10/16 11:07:59;;;;;;;0.60;0.50;;;15.30;62.00;;;;;;5041582;28;20036;-82
2023/10/16 11:10:26;;;;;;;1.05;0.50;;;15.20;62.40;;;;;;5042319;28;20064;-81
2023/10/16 11:13:03;;;;;;;1.50;0.43;;;15.30;61.40;;;;;;5046515;28;20392;-83
2023/10/16 11:15:31;;;;;;;0.40;0.40;;;15.20;62.10;;;;;;5050201;28;20445;-81
2023/10/16 11:18:07;;;;;;;3.00;0.50;;;15.20;62.20;;;;;;5052288;28;20082;-83
2023/10/16 11:20:36;;;;;;;2.60;0.70;;;15.20;63.10;;;;;;5052475;28;20070;-83
2023/10/16 11:23:13;;;;;;;1.20;0.52;;;15.20;62.20;;;;;;5049424;28;20537;-82
2023/10/16 11:25:44;;;;;;;1.65;0.43;;;15.10;62.30;;;;;;5054147;28;20033;-81
2023/10/16 11:28:20;;;;;;;0.80;0.57;;;14.90;62.50;;;;;;5055403;28;20071;-80
2023/10/16 11:30:49;;;;;;;0.75;0.50;;;15.00;63.20;;;;;;5052122;28;20131;-78
2023/10/16 11:33:35;;;;;;;0.52;0.50;;;15.10;62.50;;;;;;5044554;28;20029;-80
2023/10/16 11:36:07;;;;;;;0.80;0.60;;;14.90;62.60;;;;;;5039700;28;20048;-82
2023/10/16 11:38:34;;;;;;;1.17;0.50;;;14.90;63.20;;;;;;5049691;28;20028;-81
2023/10/16 11:41:11;;;;;;;7.10;0.60;;;15.00;63.70;;;;;;5053181;28;20490;-80
2023/10/16 11:43:47;;;;;;;0.68;0.47;;;15.10;63.20;;;;;;5052206;28;20040;-82
2023/10/16 11:49:22;;;;;;;0.80;0.50;;;15.10;63.50;;;;;;5065968;28;20391;-83
2023/10/16 11:51:58;;;;;;;0.65;0.50;;;15.20;63.00;;;;;;5048937;28;20028;-81
2023/10/16 11:54:28;;;;;;;2.63;0.80;;;15.10;63.20;;;;;;5055612;28;20082;-82
2023/10/16 11:56:59;;;;;;;1.85;0.70;;;15.20;63.20;;;;;;5047076;28;20038;-81
2023/10/16 11:59:28;;;;;;;0.80;0.70;;;15.20;63.30;;;;;;5064178;28;20076;-80
2023/10/16 12:02:11;;;;;;;1.25;0.68;;;15.30;62.80;;;;;;5062932;28;20511;-82
2023/10/16 12:04:42;;;;;;;2.58;0.90;;;15.20;62.20;;;;;;5044058;28;20083;-82
2023/10/16 12:07:13;;;;;;;2.92;0.80;;;15.20;62.90;;;;;;5054272;28;20100;-81
2023/10/16 12:09:48;;;;;;;0.57;0.57;;;15.30;62.30;;;;;;5049241;28;20021;-81
2023/10/16 12:12:24;;;;;;;1.13;0.68;;;15.20;62.90;;;;;;5038352;28;20025;-81
2023/10/16 12:14:53;;;;;;;0.73;0.50;;;15.10;63.70;;;;;;5058202;28;20025;-81
2023/10/16 12:17:21;;;;;;;0.60;0.50;;;15.20;63.40;;;;;;5039106;28;20041;-81
2023/10/16 12:19:51;;;;;;;0.93;0.43;;;15.30;62.80;;;;;;5037719;28;20106;-81
2023/10/16 12:22:21;;;;;;;0.45;0.45;;;15.40;62.50;;;;;;5033890;28;20029;-82
2023/10/16 12:24:49;;;;;;;1.35;0.63;;;15.30;62.80;;;;;;5042768;28;20039;-80
2023/10/16 12:27:16;;;;;;;0.70;0.50;;;15.40;62.70;;;;;;5036269;28;20032;-81
2023/10/16 12:29:44;;;;;;;1.08;0.70;;;15.20;62.50;;;;;;5044657;28;20025;-81
2023/10/16 12:32:12;;;;;;;1.05;0.60;;;15.00;62.70;;;;;;5046697;28;20043;-81
2023/10/16 12:34:41;;;;;;;0.90;0.60;;;14.90;63.10;;;;;;5041976;28;20731;-82
2023/10/16 12:37:08;;;;;;;1.25;0.52;;;14.70;63.40;;;;;;5046729;28;20025;-81
2023/10/16 12:39:45;;;;;;;1.10;0.55;;;14.50;63.80;;;;;;5054719;28;20041;-81
2023/10/16 12:42:18;;;;;;;0.82;0.60;;;14.30;64.70;;;;;;5051943;28;20045;-82
2023/10/16 12:44:46;;;;;;;0.90;0.60;;;14.30;64.60;;;;;;5040860;28;20172;-83
2023/10/16 12:47:14;;;;;;;3.50;0.57;;;14.30;64.50;;;;;;5041885;28;20449;-81
2023/10/16 12:49:42;;;;;;;1.02;0.63;;;14.20;64.40;;;;;;5063511;28;20020;-81
2023/10/16 12:52:10;;;;;;;1.45;0.60;;;14.20;64.20;;;;;;5037714;28;20025;-81
2023/10/16 12:54:43;;;;;;;0.47;0.32;;;14.20;64.50;;;;;;5067923;28;20033;-81
2023/10/16 12:57:12;;;;;;;0.65;0.40;;;14.20;63.70;;;;;;5046544;28;20017;-81
2023/10/16 12:59:40;;;;;;;1.60;0.55;;;14.10;63.20;;;;;;5040330;28;20041;-81
2023/10/16 13:02:09;;;;;;;0.55;0.43;;;14.20;63.60;;;;;;5045497;28;20040;-82
2023/10/16 13:04:36;;;;;;;0.52;0.30;;;14.20;63.20;;;;;;5059242;28;20021;-82
2023/10/16 13:07:04;;;;;;;3.03;0.50;;;14.30;62.60;;;;;;5063666;28;20053;-84
2023/10/16 13:09:31;;;;;;;1.08;0.35;;;14.20;62.90;;;;;;5049557;28;20033;-82
2023/10/16 13:11:59;;;;;;;1.67;0.40;;;14.20;62.20;;;;;;5064810;28;20411;-81
2023/10/16 13:14:26;;;;;;;0.60;0.28;;;14.10;61.80;;;;;;5058427;28;20049;-82
2023/10/16 13:16:54;;;;;;;0.88;0.40;;;14.20;62.70;;;;;;5056756;28;20479;-80
2023/10/16 13:19:21;;;;;;;0.43;0.30;;;14.20;60.80;;;;;;5064421;28;20502;-80
2023/10/16 13:22:07;;;;;;;1.27;0.30;;;14.10;60.10;;;;;;5040281;28;20033;-81
2023/10/16 13:24:35;;;;;;;6.28;0.60;;;14.00;60.40;;;;;;5044477;28;20089;-83
2023/10/16 13:27:02;;;;;;;2.08;0.50;;;13.90;59.50;;;;;;5061274;28;20029;-82
2023/10/16 13:29:30;;;;;;;0.45;0.32;;;14.00;59.90;;;;;;5045982;28;20018;-82
2023/10/16 13:32:00;;;;;;;0.57;0.45;;;13.90;59.10;;;;;;5036779;28;20057;-82
2023/10/16 13:34:27;;;;;;;0.43;0.35;;;13.80;58.40;;;;;;5042608;28;20071;-80
2023/10/16 13:37:01;;;;;;;0.47;0.30;;;13.80;58.70;;;;;;5045591;28;20025;-81
2023/10/16 13:39:33;;;;;;;0.47;0.38;;;13.90;60.00;;;;;;5046391;28;20395;-81
2023/10/16 13:42:01;;;;;;;1.38;0.50;;;13.90;58.70;;;;;;5056976;28;20495;-81
2023/10/16 13:44:32;;;;;;;0.70;0.40;;;13.90;58.80;;;;;;5056418;28;20111;-81
2023/10/16 13:47:01;;;;;;;1.45;0.47;;;13.80;57.00;;;;;;5047894;28;20032;-82
2023/10/16 13:49:29;;;;;;;0.95;0.40;;;13.80;58.80;;;;;;5060394;28;20025;-82
2023/10/16 13:51:57;;;;;;;4.88;0.50;;;13.70;57.20;;;;;;5050721;28;20036;-80
2023/10/16 13:54:25;;;;;;;1.27;0.43;;;13.80;57.80;;;;;;5058709;28;20028;-82
2023/10/16 13:56:52;;;;;;;1.58;0.60;;;13.70;57.20;;;;;;5049129;28;20517;-81
2023/10/16 13:59:20;;;;;;;2.83;0.50;;;13.80;56.80;;;;;;5044699;28;20017;-81
2023/10/16 14:01:48;;;;;;;2.75;0.68;;;13.70;56.10;;;;;;5067458;28;20365;-80
2023/10/16 14:04:16;;;;;;;0.95;0.45;;;13.70;53.10;;;;;;5054976;28;20032;-81
2023/10/16 14:06:51;;;;;;;0.68;0.32;;;13.60;51.70;;;;;;5044663;28;20013;-81
2023/10/16 14:09:27;;;;;;;2.15;0.75;;;13.50;52.70;;;;;;5034506;28;20044;-81
2023/10/16 14:11:58;;;;;;;1.92;0.60;;;13.50;50.30;;;;;;5050403;28;20029;-81
2023/10/16 14:14:32;;;;;;;2.92;0.50;;;13.50;51.80;;;;;;5056647;28;20045;-80
2023/10/16 14:17:16;;;;;;;1.17;0.52;;;13.40;49.30;;;;;;5051669;28;20028;-82
2023/10/16 14:19:48;;;;;;;1.92;0.57;;;13.40;50.30;;;;;;5052660;28;20025;-80
2023/10/16 14:22:16;;;;;;;3.08;0.50;;;13.30;50.00;;;;;;5052386;28;20037;-80
2023/10/16 14:24:43;;;;;;;2.22;0.65;;;13.40;51.60;;;;;;5057741;28;20036;-81
2023/10/16 14:27:18;;;;;;;0.93;0.40;;;13.40;50.40;;;;;;5069247;28;20031;-80
2023/10/16 14:29:48;;;;;;;0.95;0.40;;;13.30;49.60;;;;;;5046496;28;21743;-80
2023/10/16 14:32:16;;;;;;;2.85;0.30;;;13.20;50.00;;;;;;5063713;28;20070;-81
2023/10/16 14:34:44;;;;;;;2.13;0.47;;;13.20;51.10;;;;;;5057258;28;20471;-81
2023/10/16 14:37:13;;;;;;;2.20;0.30;;;13.30;51.50;;;;;;5052217;28;20463;-80
2023/10/16 14:39:40;;;;;;;4.35;0.77;;;13.30;50.90;;;;;;5051846;28;20392;-81
2023/10/16 14:42:11;;;;;;;0.47;0.32;;;13.20;51.30;;;;;;5062623;28;20107;-81
2023/10/16 14:44:40;;;;;;;1.20;0.50;;;13.20;50.60;;;;;;5064091;28;20039;-81
2023/10/16 14:47:09;;;;;;;0.82;0.45;;;13.20;50.50;;;;;;5065347;28;20023;-81
2023/10/16 14:49:36;;;;;;;1.55;0.40;;;13.20;51.70;;;;;;5051201;28;20495;-81
2023/10/16 14:52:05;;;;;;;1.38;0.50;;;13.20;50.40;;;;;;5054218;28;20023;-81
2023/10/16 14:54:34;;;;;;;1.88;0.70;;;13.20;49.20;;;;;;5055113;28;20499;-81
2023/10/16 14:57:03;;;;;;;2.85;0.47;;;13.10;49.20;;;;;;5043045;28;20052;-81
2023/10/16 14:59:34;;;;;;;0.65;0.30;;;13.10;51.00;;;;;;5056638;28;20036;-80
2023/10/16 15:02:02;;;;;;;2.40;0.40;;;13.00;50.40;;;;;;5057572;28;20159;-80
2023/10/16 15:04:30;;;;;;;0.85;0.35;;;13.00;51.10;;;;;;5059495;28;20111;-81
2023/10/16 15:07:08;;;;;;;2.38;0.50;;;13.00;50.60;;;;;;5068914;28;20032;-81
2023/10/16 15:09:36;;;;;;;1.95;0.50;;;13.10;52.40;;;;;;5047102;28;20586;-82
2023/10/16 15:12:07;;;;;;;1.33;0.50;;;13.10;51.40;;;;;;5059192;28;20450;-83
2023/10/16 15:14:35;;;;;;;2.00;0.40;;;13.20;52.90;;;;;;5067394;28;20025;-82
2023/10/16 15:17:06;;;;;;;3.08;0.50;;;13.20;52.40;;;;;;5046338;28;20025;-82
2023/10/16 15:19:38;;;;;;;1.92;0.68;;;13.20;50.60;;;;;;5056025;28;20039;-81
2023/10/16 15:22:06;;;;;;;1.25;0.47;;;13.00;49.70;;;;;;5059935;28;20079;-80
2023/10/16 15:24:34;;;;;;;1.02;0.40;;;12.90;50.40;;;;;;5034957;28;20029;-82
2023/10/16 15:27:01;;;;;;;1.08;0.60;;;12.80;50.60;;;;;;5062647;28;20068;-82
2023/10/16 15:29:29;;;;;;;1.75;0.40;;;12.80;51.30;;;;;;5051851;28;20040;-82
2023/10/16 15:31:58;;;;;;;1.30;0.55;;;12.80;51.00;;;;;;5053934;28;20500;-81